Time;durP1;ratioP1;P1;durP2;ratioP2;P2;SDS_P1;SDS_P2;PMS_P1;PMS_P2;Temp;Humidity;BMP_temperature;BMP_pressure;BME280_temperature;BME280_humidity;BME280_pressure;Samples;Min_cycle;Max_cycle;Signal;HPM_P1;HPM_P2
2021/10/06 00:01:41;;;;;;;5.95;2.25;;;;;;;;;;5096138;28;20067;-77
2021/10/06 00:04:07;;;;;;;4.47;1.90;;;;;;;;;;5096272;28;20505;-77
2021/10/06 00:06:33;;;;;;;5.47;1.90;;;;;;;;;;5096262;28;20474;-76
2021/10/06 00:08:59;;;;;;;8.45;1.83;;;;;;;;;;5095529;28;20085;-77
2021/10/06 00:11:25;;;;;;;8.18;2.10;;;;;;;;;;5094926;28;20435;-77
2021/10/06 00:13:51;;;;;;;6.78;2.53;;;;;;;;;;5095100;28;20082;-77
2021/10/06 00:16:17;;;;;;;9.27;2.55;;;;;;;;;;5095728;28;20046;-77
2021/10/06 00:18:42;;;;;;;9.13;2.42;;;;;;;;;;5095096;28;20031;-77
2021/10/06 00:21:08;;;;;;;8.45;2.13;;;;;;;;;;5095407;28;20116;-77
2021/10/06 00:23:34;;;;;;;10.15;2.80;;;;;;;;;;5095668;28;20071;-77
2021/10/06 00:26:00;;;;;;;6.97;1.92;;;;;;;;;;5093892;28;20565;-77
2021/10/06 00:28:26;;;;;;;5.00;1.70;;;;;;;;;;5095598;28;20032;-77
2021/10/06 00:30:52;;;;;;;4.18;1.45;;;;;;;;;;5095270;28;20039;-77
2021/10/06 00:33:17;;;;;;;8.73;2.40;;;;;;;;;;5095352;28;20032;-77
2021/10/06 00:35:43;;;;;;;6.72;1.88;;;;;;;;;;5095460;28;20036;-77
2021/10/06 00:38:08;;;;;;;6.63;2.10;;;;;;;;;;5095445;28;20044;-77
2021/10/06 00:40:33;;;;;;;4.85;1.80;;;;;;;;;;5094748;28;20032;-77
2021/10/06 00:42:59;;;;;;;6.78;1.85;;;;;;;;;;5094883;28;20032;-77
2021/10/06 00:45:25;;;;;;;7.80;1.90;;;;;;;;;;5095495;28;20077;-77
2021/10/06 00:47:50;;;;;;;6.80;1.80;;;;;;;;;;5094852;28;20373;-77
2021/10/06 00:50:16;;;;;;;5.22;1.90;;;;;;;;;;5094714;28;20032;-77
2021/10/06 00:52:41;;;;;;;6.15;1.67;;;;;;;;;;5094615;28;20036;-77
2021/10/06 00:55:07;;;;;;;7.93;1.92;;;;;;;;;;5094621;28;20036;-76
2021/10/06 00:57:33;;;;;;;7.25;1.90;;;;;;;;;;5094685;28;20036;-77
2021/10/06 00:59:59;;;;;;;7.60;1.98;;;;;;;;;;5094754;28;20039;-77
2021/10/06 01:02:25;;;;;;;4.90;1.90;;;;;;;;;;5094437;28;20027;-77
2021/10/06 01:04:50;;;;;;;8.70;2.20;;;;;;;;;;5094883;28;20031;-77
2021/10/06 01:07:16;;;;;;;6.32;2.25;;;;;;;;;;5093407;28;20449;-77
2021/10/06 01:09:43;;;;;;;8.20;1.83;;;;;;;;;;5094479;28;20557;-77
2021/10/06 01:12:09;;;;;;;10.27;1.50;;;;;;;;;;5094391;28;20028;-76
2021/10/06 01:14:35;;;;;;;5.95;1.20;;;;;;;;;;5095571;28;20043;-77
2021/10/06 01:17:01;;;;;;;2.72;1.10;;;;;;;;;;5095547;28;20044;-77
2021/10/06 01:19:28;;;;;;;5.22;1.27;;;;;;;;;;5095384;28;20118;-77
2021/10/06 01:21:56;;;;;;;7.82;1.25;;;;;;;;;;5095809;28;20036;-77
2021/10/06 01:24:23;;;;;;;4.13;1.25;;;;;;;;;;5095794;28;20114;-77
2021/10/06 01:26:48;;;;;;;11.57;1.88;;;;;;;;;;5094060;28;20036;-76
2021/10/06 01:29:16;;;;;;;8.48;1.85;;;;;;;;;;5095796;28;20122;-77
2021/10/06 01:31:46;;;;;;;3.45;1.27;;;;;;;;;;5077404;28;20031;-77
2021/10/06 01:34:12;;;;;;;2.33;0.98;;;;;;;;;;5092423;28;20035;-76
2021/10/06 01:36:37;;;;;;;5.90;1.45;;;;;;;;;;5093601;28;20039;-76
2021/10/06 01:39:06;;;;;;;7.30;1.02;;;;;;;;;;5092854;28;20098;-77
2021/10/06 01:41:33;;;;;;;9.35;1.70;;;;;;;;;;5093512;28;20042;-77
2021/10/06 01:43:59;;;;;;;4.88;1.80;;;;;;;;;;5093435;28;20035;-77
2021/10/06 01:46:24;;;;;;;3.38;1.40;;;;;;;;;;5091958;28;20040;-77
2021/10/06 01:48:50;;;;;;;4.20;1.20;;;;;;;;;;5090028;28;20451;-76
2021/10/06 01:51:15;;;;;;;8.43;1.15;;;;;;;;;;5090479;28;20036;-76
2021/10/06 01:53:41;;;;;;;6.95;1.02;;;;;;;;;;5092362;28;20036;-77
2021/10/06 01:56:06;;;;;;;6.13;1.27;;;;;;;;;;5091032;28;20118;-77
2021/10/06 01:58:33;;;;;;;10.07;1.83;;;;;;;;;;5090396;28;20397;-76
2021/10/06 02:00:58;;;;;;;5.40;1.25;;;;;;;;;;5092765;28;20024;-77
2021/10/06 02:03:23;;;;;;;10.82;1.60;;;;;;;;;;5094246;28;20036;-77
2021/10/06 02:05:49;;;;;;;2.65;1.08;;;;;;;;;;5094356;28;20039;-77
2021/10/06 02:08:15;;;;;;;9.88;1.25;;;;;;;;;;5094319;28;20039;-77
2021/10/06 02:10:42;;;;;;;5.50;1.25;;;;;;;;;;5093248;28;20117;-77
2021/10/06 02:13:07;;;;;;;1.55;0.80;;;;;;;;;;5093365;28;20039;-76
2021/10/06 02:15:33;;;;;;;3.70;1.23;;;;;;;;;;5093352;28;20036;-76
2021/10/06 02:17:59;;;;;;;7.30;1.20;;;;;;;;;;5093198;28;20083;-76
2021/10/06 02:20:25;;;;;;;5.95;1.35;;;;;;;;;;5093173;28;20056;-77
2021/10/06 02:22:51;;;;;;;6.65;1.60;;;;;;;;;;5093572;28;20044;-76
2021/10/06 02:25:17;;;;;;;4.38;1.40;;;;;;;;;;5093159;28;20028;-76
2021/10/06 02:27:43;;;;;;;6.93;1.45;;;;;;;;;;5092832;28;20105;-77
2021/10/06 02:30:09;;;;;;;7.55;1.38;;;;;;;;;;5091852;28;20473;-77
2021/10/06 02:32:34;;;;;;;6.90;1.35;;;;;;;;;;5093279;28;20123;-77
2021/10/06 02:35:00;;;;;;;3.97;1.20;;;;;;;;;;5093075;28;20445;-77
2021/10/06 02:37:25;;;;;;;4.75;1.35;;;;;;;;;;5092967;28;20035;-77
2021/10/06 02:39:51;;;;;;;6.63;1.30;;;;;;;;;;5092694;28;20044;-77
2021/10/06 02:42:16;;;;;;;3.72;1.10;;;;;;;;;;5092784;28;20038;-77
2021/10/06 02:44:42;;;;;;;2.53;1.00;;;;;;;;;;5093409;28;20060;-76
2021/10/06 02:47:07;;;;;;;4.47;1.10;;;;;;;;;;5094976;28;20482;-77
2021/10/06 02:49:33;;;;;;;2.75;1.10;;;;;;;;;;5094734;28;20044;-77
2021/10/06 02:51:59;;;;;;;5.97;1.23;;;;;;;;;;5094870;28;20089;-77
2021/10/06 02:54:24;;;;;;;6.03;1.63;;;;;;;;;;5093225;28;20051;-78
2021/10/06 02:56:50;;;;;;;7.97;1.13;;;;;;;;;;5093336;28;20070;-77
2021/10/06 02:59:15;;;;;;;6.38;1.30;;;;;;;;;;5094234;28;20048;-77
2021/10/06 03:01:41;;;;;;;2.30;1.05;;;;;;;;;;5093437;28;20119;-77
2021/10/06 03:04:06;;;;;;;3.65;1.10;;;;;;;;;;5093568;28;20043;-79
2021/10/06 03:06:32;;;;;;;5.68;1.25;;;;;;;;;;5092674;28;20066;-76
2021/10/06 03:08:57;;;;;;;2.50;1.13;;;;;;;;;;5092494;28;20028;-77
2021/10/06 03:11:23;;;;;;;3.58;1.40;;;;;;;;;;5090776;28;20036;-77
2021/10/06 03:13:48;;;;;;;8.10;1.73;;;;;;;;;;5091686;28;20050;-77
2021/10/06 03:16:14;;;;;;;4.20;1.40;;;;;;;;;;5093303;28;20115;-77
2021/10/06 03:18:39;;;;;;;5.57;1.65;;;;;;;;;;5096182;28;20059;-77
2021/10/06 03:21:04;;;;;;;7.05;1.30;;;;;;;;;;5094961;28;20028;-77
2021/10/06 03:23:30;;;;;;;4.60;1.08;;;;;;;;;;5096012;28;20454;-76
2021/10/06 03:25:55;;;;;;;4.57;1.30;;;;;;;;;;5096065;28;20032;-77
2021/10/06 03:28:21;;;;;;;4.45;1.30;;;;;;;;;;5095765;28;20550;-76
2021/10/06 03:30:46;;;;;;;3.22;1.20;;;;;;;;;;5095956;28;20077;-77
2021/10/06 03:33:12;;;;;;;6.45;1.50;;;;;;;;;;5094884;28;20047;-77
2021/10/06 03:35:37;;;;;;;6.57;1.60;;;;;;;;;;5096037;28;20032;-77
2021/10/06 03:38:03;;;;;;;2.90;1.33;;;;;;;;;;5095644;28;20493;-77
2021/10/06 03:40:28;;;;;;;2.80;1.20;;;;;;;;;;5095768;28;20032;-77
2021/10/06 03:42:53;;;;;;;2.80;1.20;;;;;;;;;;5095583;28;20054;-77
2021/10/06 03:45:19;;;;;;;3.20;1.58;;;;;;;;;;5093403;28;20034;-77
2021/10/06 03:47:45;;;;;;;2.53;1.10;;;;;;;;;;5094979;28;20042;-77
2021/10/06 03:50:14;;;;;;;6.15;1.35;;;;;;;;;;5095295;28;20067;-77
2021/10/06 03:52:40;;;;;;;3.38;1.45;;;;;;;;;;5095373;28;20036;-77
2021/10/06 03:55:07;;;;;;;5.70;1.63;;;;;;;;;;5095267;28;20541;-76
2021/10/06 03:57:33;;;;;;;7.45;2.13;;;;;;;;;;5085024;28;20103;-77
2021/10/06 03:59:58;;;;;;;5.03;1.50;;;;;;;;;;5089204;28;20074;-76
2021/10/06 04:02:24;;;;;;;11.73;1.77;;;;;;;;;;5096325;28;20024;-78
2021/10/06 04:04:49;;;;;;;9.48;1.90;;;;;;;;;;5095938;28;20036;-77
2021/10/06 04:07:14;;;;;;;6.05;1.55;;;;;;;;;;5095893;28;20044;-77
2021/10/06 04:09:40;;;;;;;9.63;1.38;;;;;;;;;;5096235;28;20036;-78
2021/10/06 04:12:05;;;;;;;4.30;1.50;;;;;;;;;;5098117;28;20056;-78
2021/10/06 04:14:30;;;;;;;5.68;1.70;;;;;;;;;;5097388;28;20047;-78
2021/10/06 04:16:56;;;;;;;3.10;1.25;;;;;;;;;;5096650;28;20101;-77
2021/10/06 04:19:21;;;;;;;8.40;1.75;;;;;;;;;;5095600;28;20036;-77
2021/10/06 04:21:46;;;;;;;6.03;1.65;;;;;;;;;;5096827;28;20035;-78
2021/10/06 04:24:12;;;;;;;8.68;1.55;;;;;;;;;;5096035;28;20058;-76
2021/10/06 04:26:37;;;;;;;3.22;1.30;;;;;;;;;;5095657;28;20028;-76
2021/10/06 04:29:03;;;;;;;9.75;1.63;;;;;;;;;;5095257;28;20377;-76
2021/10/06 04:31:28;;;;;;;7.28;1.67;;;;;;;;;;5095356;28;20397;-76
2021/10/06 04:33:54;;;;;;;5.22;1.20;;;;;;;;;;5095161;28;20080;-76
2021/10/06 04:36:19;;;;;;;6.47;1.67;;;;;;;;;;5095379;28;20441;-76
2021/10/06 04:38:44;;;;;;;7.40;1.98;;;;;;;;;;5094881;28;20101;-76
2021/10/06 04:41:10;;;;;;;3.90;1.67;;;;;;;;;;5095244;28;20046;-76
2021/10/06 04:43:36;;;;;;;5.38;1.42;;;;;;;;;;5093330;28;20436;-76
2021/10/06 04:46:01;;;;;;;8.45;1.95;;;;;;;;;;5093618;28;20040;-76
2021/10/06 04:48:27;;;;;;;5.03;1.70;;;;;;;;;;5094668;28;20040;-76
2021/10/06 04:50:52;;;;;;;6.57;1.52;;;;;;;;;;5093653;28;20043;-76
2021/10/06 04:53:18;;;;;;;7.63;2.10;;;;;;;;;;5095065;28;20086;-76
2021/10/06 04:55:44;;;;;;;5.38;1.77;;;;;;;;;;5094761;28;20077;-76
2021/10/06 04:58:09;;;;;;;6.35;1.80;;;;;;;;;;5093344;28;20035;-76
2021/10/06 05:00:34;;;;;;;4.65;1.45;;;;;;;;;;5093168;28;20035;-76
2021/10/06 05:03:11;;;;;;;3.03;1.52;;;;;;;;;;5094414;28;20385;-76
2021/10/06 05:05:38;;;;;;;5.57;1.58;;;;;;;;;;5093118;28;20065;-76
2021/10/06 05:08:04;;;;;;;11.93;2.55;;;;;;;;;;5093250;28;20040;-76
2021/10/06 05:10:29;;;;;;;5.28;1.85;;;;;;;;;;5093136;28;20355;-76
2021/10/06 05:12:55;;;;;;;6.60;1.90;;;;;;;;;;5094197;28;20067;-76
2021/10/06 05:15:20;;;;;;;9.50;1.85;;;;;;;;;;5094194;28;20076;-76
2021/10/06 05:17:45;;;;;;;5.72;1.60;;;;;;;;;;5094114;28;20081;-76
2021/10/06 05:20:11;;;;;;;7.38;1.60;;;;;;;;;;5094553;28;20039;-76
2021/10/06 05:22:36;;;;;;;9.40;3.67;;;;;;;;;;5094244;28;20039;-76
2021/10/06 05:25:03;;;;;;;6.07;1.70;;;;;;;;;;5093941;28;20067;-76
2021/10/06 05:27:30;;;;;;;5.35;2.50;;;;;;;;;;5094320;28;20085;-76
2021/10/06 05:29:56;;;;;;;14.77;2.20;;;;;;;;;;5094534;28;20123;-76
2021/10/06 05:32:21;;;;;;;5.80;1.90;;;;;;;;;;5092756;28;20111;-76
2021/10/06 05:34:46;;;;;;;9.25;2.08;;;;;;;;;;5094227;28;20078;-76
2021/10/06 05:37:12;;;;;;;3.97;1.67;;;;;;;;;;5094135;28;20123;-76
2021/10/06 05:39:37;;;;;;;4.15;1.55;;;;;;;;;;5092829;28;20130;-76
2021/10/06 05:42:03;;;;;;;7.18;1.70;;;;;;;;;;5093960;28;20085;-76
2021/10/06 05:44:28;;;;;;;7.47;2.50;;;;;;;;;;5093117;28;20044;-76
2021/10/06 05:46:54;;;;;;;6.72;1.80;;;;;;;;;;5093847;28;20417;-76
2021/10/06 05:49:19;;;;;;;7.28;1.77;;;;;;;;;;5093299;28;20046;-76
2021/10/06 05:51:44;;;;;;;8.48;1.80;;;;;;;;;;5092050;28;20397;-76
2021/10/06 05:54:10;;;;;;;7.20;1.90;;;;;;;;;;5090849;28;20467;-77
2021/10/06 05:56:36;;;;;;;8.93;1.75;;;;;;;;;;5095822;28;20031;-78
2021/10/06 05:59:01;;;;;;;11.82;2.10;;;;;;;;;;5096825;28;20043;-77
2021/10/06 06:01:26;;;;;;;6.20;1.88;;;;;;;;;;5098048;28;20039;-78
2021/10/06 06:03:53;;;;;;;3.05;1.73;;;;;;;;;;5095038;28;20068;-76
2021/10/06 06:06:18;;;;;;;7.65;2.00;;;;;;;;;;5095066;28;20114;-76
2021/10/06 06:08:44;;;;;;;8.30;1.75;;;;;;;;;;5093320;28;20048;-76
2021/10/06 06:11:09;;;;;;;6.03;1.80;;;;;;;;;;5093043;28;20074;-77
2021/10/06 06:13:35;;;;;;;7.72;1.65;;;;;;;;;;5093537;28;20028;-77
2021/10/06 06:16:00;;;;;;;10.57;1.90;;;;;;;;;;5093443;28;20085;-78
2021/10/06 06:18:26;;;;;;;4.28;1.65;;;;;;;;;;5093355;28;20040;-78
2021/10/06 06:20:51;;;;;;;5.18;1.52;;;;;;;;;;5093323;28;20032;-78
2021/10/06 06:23:16;;;;;;;6.65;2.00;;;;;;;;;;5093371;28;20055;-77
2021/10/06 06:25:42;;;;;;;5.22;1.55;;;;;;;;;;5092896;28;20035;-77
2021/10/06 06:28:07;;;;;;;7.55;1.70;;;;;;;;;;5093117;28;20036;-77
2021/10/06 06:30:33;;;;;;;5.35;1.60;;;;;;;;;;5093021;28;20032;-77
2021/10/06 06:32:58;;;;;;;4.15;1.55;;;;;;;;;;5092125;28;20050;-77
2021/10/06 06:35:23;;;;;;;2.85;1.20;;;;;;;;;;5093265;28;20036;-77
2021/10/06 06:37:49;;;;;;;4.35;1.50;;;;;;;;;;5093634;28;20040;-77
2021/10/06 06:40:14;;;;;;;4.70;1.58;;;;;;;;;;5098713;28;20051;-77
2021/10/06 06:42:42;;;;;;;4.55;1.52;;;;;;;;;;5098388;28;20027;-77
2021/10/06 06:45:08;;;;;;;9.50;1.60;;;;;;;;;;5076240;28;20049;-76
2021/10/06 06:47:34;;;;;;;6.63;1.20;;;;;;;;;;5091758;28;20036;-76
2021/10/06 06:49:59;;;;;;;5.13;1.30;;;;;;;;;;5094861;28;20473;-75
2021/10/06 06:52:25;;;;;;;5.38;1.25;;;;;;;;;;5100656;28;20028;-79
2021/10/06 06:54:51;;;;;;;4.90;1.40;;;;;;;;;;5100737;28;20040;-80
2021/10/06 06:57:16;;;;;;;4.70;1.30;;;;;;;;;;5101739;28;20089;-81
2021/10/06 06:59:41;;;;;;;5.28;1.80;;;;;;;;;;5100697;28;20095;-82
2021/10/06 07:02:08;;;;;;;7.45;1.60;;;;;;;;;;5100800;28;20039;-80
2021/10/06 07:04:33;;;;;;;5.63;1.40;;;;;;;;;;5101869;28;20035;-80
2021/10/06 07:06:59;;;;;;;3.78;1.25;;;;;;;;;;5100211;28;20496;-79
2021/10/06 07:09:29;;;;;;;6.53;1.58;;;;;;;;;;5100206;28;20036;-81
2021/10/06 07:11:55;;;;;;;6.75;1.58;;;;;;;;;;5093361;28;20037;-82
2021/10/06 07:14:20;;;;;;;7.40;1.27;;;;;;;;;;5080781;28;20047;-79
2021/10/06 07:16:46;;;;;;;7.28;1.30;;;;;;;;;;5080877;28;20063;-80
2021/10/06 07:19:11;;;;;;;6.43;1.75;;;;;;;;;;5079406;28;20116;-79
2021/10/06 07:21:37;;;;;;;3.90;1.15;;;;;;;;;;5079970;28;20044;-80
2021/10/06 07:24:03;;;;;;;7.07;1.30;;;;;;;;;;5076645;28;20492;-78
2021/10/06 07:26:30;;;;;;;6.60;1.55;;;;;;;;;;5076663;28;20037;-77
2021/10/06 07:28:55;;;;;;;5.15;1.50;;;;;;;;;;5077265;28;20047;-79
2021/10/06 07:31:21;;;;;;;6.22;1.80;;;;;;;;;;5079908;28;20040;-79
2021/10/06 07:33:47;;;;;;;6.82;1.65;;;;;;;;;;5079262;28;20119;-78
2021/10/06 07:36:12;;;;;;;4.78;1.52;;;;;;;;;;5076261;28;20114;-78
2021/10/06 07:38:38;;;;;;;5.63;1.60;;;;;;;;;;5076502;28;20080;-78
2021/10/06 07:41:03;;;;;;;8.95;1.42;;;;;;;;;;5076241;28;20033;-78
2021/10/06 07:43:29;;;;;;;4.07;1.40;;;;;;;;;;5077093;28;20033;-78
2021/10/06 07:45:55;;;;;;;6.97;2.00;;;;;;;;;;5077562;28;20033;-80
2021/10/06 07:48:23;;;;;;;6.50;1.40;;;;;;;;;;5080577;28;20032;-78
2021/10/06 07:50:48;;;;;;;5.68;1.38;;;;;;;;;;5077036;28;20024;-78
2021/10/06 07:53:14;;;;;;;10.50;1.55;;;;;;;;;;5078117;28;20474;-80
2021/10/06 07:55:40;;;;;;;7.28;1.33;;;;;;;;;;5080046;28;20116;-78
2021/10/06 07:58:05;;;;;;;8.40;1.30;;;;;;;;;;5079470;28;20067;-79
2021/10/06 08:00:31;;;;;;;3.72;1.00;;;;;;;;;;5079205;28;20249;-82
2021/10/06 08:02:56;;;;;;;6.57;1.40;;;;;;;;;;5076929;28;20036;-80
2021/10/06 08:05:21;;;;;;;5.68;1.20;;;;;;;;;;5081444;28;20048;-81
2021/10/06 08:07:47;;;;;;;5.13;2.40;;;;;;;;;;5086478;28;20035;-82
2021/10/06 08:10:12;;;;;;;5.47;1.92;;;;;;;;;;5098300;28;20134;-81
2021/10/06 08:12:37;;;;;;;8.68;2.22;;;;;;;;;;5108388;28;20067;-82
2021/10/06 08:15:04;;;;;;;5.03;1.30;;;;;;;;;;5110221;28;20608;-83
2021/10/06 08:17:29;;;;;;;6.75;1.50;;;;;;;;;;5111971;28;20035;-83
2021/10/06 08:19:55;;;;;;;6.75;1.23;;;;;;;;;;5103787;28;20032;-81
2021/10/06 08:22:20;;;;;;;3.72;1.30;;;;;;;;;;5100467;28;20020;-84
2021/10/06 08:24:46;;;;;;;6.28;1.40;;;;;;;;;;5102402;28;20078;-85
2021/10/06 08:27:13;;;;;;;3.13;1.23;;;;;;;;;;5086851;28;20076;-77
2021/10/06 08:29:39;;;;;;;5.57;1.50;;;;;;;;;;5082119;28;20059;-82
2021/10/06 08:32:05;;;;;;;3.28;1.20;;;;;;;;;;5080366;28;20047;-84
2021/10/06 08:34:31;;;;;;;4.22;1.42;;;;;;;;;;5077014;28;20052;-86
2021/10/06 08:36:56;;;;;;;6.45;1.45;;;;;;;;;;5058095;28;20040;-86
2021/10/06 08:39:21;;;;;;;6.10;1.98;;;;;;;;;;5074401;28;20045;-87
2021/10/06 08:41:47;;;;;;;4.95;1.33;;;;;;;;;;5058262;28;20036;-84
2021/10/06 08:44:12;;;;;;;8.60;1.50;;;;;;;;;;5075273;28;20055;-87
2021/10/06 08:46:38;;;;;;;3.80;1.52;;;;;;;;;;5073211;28;20036;-87
2021/10/06 08:49:03;;;;;;;4.05;0.85;;;;;;;;;;5057122;28;20036;-86
2021/10/06 08:51:29;;;;;;;7.43;1.40;;;;;;;;;;5076258;28;20039;-85
2021/10/06 08:53:54;;;;;;;4.63;1.02;;;;;;;;;;5074329;28;20044;-86
2021/10/06 08:56:25;;;;;;;6.18;1.23;;;;;;;;;;5075105;28;20062;-87
2021/10/06 08:58:51;;;;;;;4.88;1.17;;;;;;;;;;5074385;28;20039;-86
2021/10/06 09:01:24;;;;;;;5.05;1.33;;;;;;;;;;5078242;28;20406;-86
2021/10/06 09:03:56;;;;;;;7.68;1.50;;;;;;;;;;5075566;28;20097;-85
2021/10/06 09:06:33;;;;;;;6.93;1.08;;;;;;;;;;5073904;28;20037;-86
2021/10/06 09:09:30;;;;;;;5.35;1.00;;;;;;;;;;5056334;28;20172;-87
2021/10/06 09:11:58;;;;;;;8.43;1.30;;;;;;;;;;5061823;28;20131;-85
2021/10/06 09:14:23;;;;;;;5.95;1.45;;;;;;;;;;5078123;28;20033;-85
2021/10/06 09:17:05;;;;;;;4.60;1.50;;;;;;;;;;5077010;28;20039;-83
2021/10/06 09:19:45;;;;;;;5.70;1.23;;;;;;;;;;5080988;28;20036;-85
2021/10/06 09:22:13;;;;;;;4.53;1.48;;;;;;;;;;5079437;28;20029;-85
2021/10/06 09:24:56;;;;;;;14.43;1.67;;;;;;;;;;5080279;28;20040;-86
2021/10/06 09:27:34;;;;;;;6.85;1.73;;;;;;;;;;5077059;28;20047;-86
2021/10/06 09:30:04;;;;;;;9.98;1.92;;;;;;;;;;5078144;28;20393;-83
2021/10/06 09:32:34;;;;;;;7.38;1.70;;;;;;;;;;5078295;28;20033;-84
2021/10/06 09:35:06;;;;;;;7.20;1.80;;;;;;;;;;5078833;28;20040;-82
2021/10/06 09:37:33;;;;;;;4.40;1.10;;;;;;;;;;5077357;28;20044;-83
2021/10/06 09:39:58;;;;;;;5.65;1.00;;;;;;;;;;5088918;28;20494;-82
2021/10/06 09:42:24;;;;;;;4.25;1.40;;;;;;;;;;5097611;28;20035;-80
2021/10/06 09:44:55;;;;;;;6.18;1.00;;;;;;;;;;5097078;28;20055;-80
2021/10/06 09:47:21;;;;;;;4.65;1.10;;;;;;;;;;5098128;28;20051;-84
2021/10/06 09:49:56;;;;;;;10.38;1.27;;;;;;;;;;5079145;28;20040;-78
2021/10/06 09:52:25;;;;;;;3.50;0.90;;;;;;;;;;5098190;28;20047;-77
2021/10/06 09:55:03;;;;;;;3.38;0.80;;;;;;;;;;5094697;28;20040;-78
2021/10/06 09:57:31;;;;;;;3.05;1.13;;;;;;;;;;5095495;28;20043;-78
2021/10/06 10:00:01;;;;;;;3.03;1.27;;;;;;;;;;5097224;28;20039;-80
2021/10/06 10:02:26;;;;;;;6.40;1.45;;;;;;;;;;5097064;28;20024;-82
2021/10/06 10:04:56;;;;;;;4.88;1.60;;;;;;;;;;5098289;28;20084;-82
2021/10/06 10:07:22;;;;;;;5.05;1.40;;;;;;;;;;5098574;28;20465;-83
2021/10/06 10:09:48;;;;;;;6.90;2.58;;;;;;;;;;5096302;28;20039;-81
2021/10/06 10:12:16;;;;;;;4.10;1.33;;;;;;;;;;5095019;28;20028;-80
2021/10/06 10:14:41;;;;;;;2.92;1.08;;;;;;;;;;5100864;28;20036;-78
2021/10/06 10:17:07;;;;;;;4.70;1.40;;;;;;;;;;5097837;28;20122;-81
2021/10/06 10:19:33;;;;;;;9.65;1.40;;;;;;;;;;5097183;28;20040;-80
2021/10/06 10:22:03;;;;;;;4.57;1.10;;;;;;;;;;5094716;28;20059;-80
2021/10/06 10:24:29;;;;;;;12.30;6.65;;;;;;;;;;5096633;28;20039;-80
2021/10/06 10:27:02;;;;;;;6.57;1.00;;;;;;;;;;5100733;28;20096;-80
2021/10/06 10:29:55;;;;;;;1.85;0.73;;;;;;;;;;5100320;28;20130;-80
2021/10/06 10:32:23;;;;;;;4.50;1.40;;;;;;;;;;5099229;28;20080;-80
2021/10/06 10:35:04;;;;;;;2.90;1.00;;;;;;;;;;5099673;28;20063;-80
2021/10/06 10:37:48;;;;;;;5.95;1.55;;;;;;;;;;5098089;28;20035;-79
2021/10/06 10:40:34;;;;;;;5.38;1.52;;;;;;;;;;5113551;28;20074;-80
2021/10/06 10:43:14;;;;;;;6.47;1.40;;;;;;;;;;5119444;28;20035;-79
2021/10/06 10:45:44;;;;;;;9.07;1.30;;;;;;;;;;5121286;28;20063;-79
2021/10/06 10:48:21;;;;;;;5.35;1.30;;;;;;;;;;5120991;28;20044;-79
2021/10/06 10:50:47;;;;;;;7.75;1.02;;;;;;;;;;5122201;28;20028;-79
2021/10/06 10:53:17;;;;;;;3.67;1.10;;;;;;;;;;5123025;28;20062;-80
2021/10/06 10:55:54;;;;;;;3.22;0.80;;;;;;;;;;5123073;28;20038;-79
2021/10/06 10:58:39;;;;;;;5.85;1.40;;;;;;;;;;5121311;28;20106;-79
2021/10/06 11:01:06;;;;;;;4.80;1.40;;;;;;;;;;5122836;28;20102;-79
2021/10/06 11:03:32;;;;;;;8.43;1.50;;;;;;;;;;5122441;28;20054;-80
2021/10/06 11:05:58;;;;;;;7.25;1.50;;;;;;;;;;5122398;28;20027;-80
2021/10/06 11:08:25;;;;;;;3.17;1.23;;;;;;;;;;5122232;28;20034;-79
2021/10/06 11:11:09;;;;;;;4.13;1.35;;;;;;;;;;5101530;28;20038;-80
2021/10/06 11:13:45;;;;;;;7.60;1.33;;;;;;;;;;5101354;28;20032;-80
2021/10/06 11:16:11;;;;;;;2.97;1.00;;;;;;;;;;5101410;28;20460;-80
2021/10/06 11:18:46;;;;;;;4.15;0.85;;;;;;;;;;5099428;28;20066;-80
2021/10/06 11:21:28;;;;;;;6.55;1.38;;;;;;;;;;5100635;28;20036;-80
2021/10/06 11:23:54;;;;;;;4.68;1.20;;;;;;;;;;5100638;28;20110;-81
2021/10/06 11:26:25;;;;;;;7.18;1.70;;;;;;;;;;5099224;28;20064;-81
2021/10/06 11:28:52;;;;;;;4.57;1.10;;;;;;;;;;5100843;28;20063;-80
2021/10/06 11:31:29;;;;;;;3.88;1.50;;;;;;;;;;5100550;28;20040;-80
2021/10/06 11:33:57;;;;;;;2.97;0.98;;;;;;;;;;5100125;28;20054;-80
2021/10/06 11:36:25;;;;;;;4.10;1.08;;;;;;;;;;5099291;28;20481;-80
2021/10/06 11:38:56;;;;;;;6.25;0.90;;;;;;;;;;5096341;28;20053;-81
2021/10/06 11:41:22;;;;;;;5.15;0.95;;;;;;;;;;5102165;28;20023;-80
2021/10/06 11:43:50;;;;;;;3.22;0.85;;;;;;;;;;5120725;28;20408;-80
2021/10/06 11:46:18;;;;;;;1.90;0.60;;;;;;;;;;5120272;28;20540;-80
2021/10/06 11:48:48;;;;;;;2.33;0.90;;;;;;;;;;5121323;28;20040;-81
2021/10/06 11:51:13;;;;;;;4.72;0.93;;;;;;;;;;5122313;28;20056;-80
2021/10/06 11:53:57;;;;;;;5.18;1.65;;;;;;;;;;5119439;28;20039;-81
2021/10/06 11:56:28;;;;;;;2.92;1.05;;;;;;;;;;5119465;28;20443;-78
2021/10/06 11:58:54;;;;;;;3.10;1.02;;;;;;;;;;5116561;28;20374;-78
2021/10/06 12:01:20;;;;;;;3.50;1.30;;;;;;;;;;5115939;28;20027;-79
2021/10/06 12:03:46;;;;;;;3.50;0.93;;;;;;;;;;5115323;28;20035;-78
2021/10/06 12:06:13;;;;;;;3.33;0.88;;;;;;;;;;5116887;28;20035;-78
2021/10/06 12:08:40;;;;;;;3.20;1.10;;;;;;;;;;5115037;28;20051;-77
2021/10/06 12:11:07;;;;;;;4.20;0.95;;;;;;;;;;5106136;28;20028;-77
2021/10/06 12:13:35;;;;;;;4.78;1.02;;;;;;;;;;5095613;28;20040;-77
2021/10/06 12:16:18;;;;;;;3.65;0.70;;;;;;;;;;5094148;28;20039;-77
2021/10/06 12:18:53;;;;;;;1.80;0.80;;;;;;;;;;5095326;28;20067;-77
2021/10/06 12:21:18;;;;;;;2.88;0.85;;;;;;;;;;5094867;28;20135;-78
2021/10/06 12:23:44;;;;;;;2.67;0.77;;;;;;;;;;5095295;28;20067;-78
2021/10/06 12:26:09;;;;;;;2.35;0.80;;;;;;;;;;5094820;28;20389;-78
2021/10/06 12:28:50;;;;;;;9.43;1.65;;;;;;;;;;5094736;28;20036;-78
2021/10/06 12:31:24;;;;;;;1.65;0.77;;;;;;;;;;5095266;28;20457;-78
2021/10/06 12:34:01;;;;;;;3.10;1.02;;;;;;;;;;5095109;28;20061;-78
2021/10/06 12:36:26;;;;;;;5.10;1.20;;;;;;;;;;5095201;28;20036;-78
2021/10/06 12:38:51;;;;;;;3.45;0.95;;;;;;;;;;5093930;28;20397;-78
2021/10/06 12:41:18;;;;;;;3.28;1.02;;;;;;;;;;5094711;28;20028;-78
2021/10/06 12:43:46;;;;;;;3.08;0.82;;;;;;;;;;5094906;28;20032;-77
2021/10/06 12:46:15;;;;;;;8.45;0.90;;;;;;;;;;5094931;28;20050;-77
2021/10/06 12:48:52;;;;;;;6.13;1.02;;;;;;;;;;5090553;28;20032;-78
2021/10/06 12:51:23;;;;;;;4.50;0.90;;;;;;;;;;5074822;28;20049;-78
2021/10/06 12:53:56;;;;;;;3.13;0.70;;;;;;;;;;5074381;28;20455;-77
2021/10/06 12:56:32;;;;;;;2.75;1.10;;;;;;;;;;5074027;28;20036;-77
2021/10/06 12:58:58;;;;;;;;;;;;;;;;;;5074676;28;20040;-77
2021/10/06 13:01:24;;;;;;;;;;;;;;;;;;5074685;28;19909;-77
2021/10/06 13:03:49;;;;;;;2.10;0.60;;;;;;;;;;5073009;28;20448;-77
2021/10/06 13:06:16;;;;;;;2.17;0.85;;;;;;;;;;5074077;28;20035;-78
2021/10/06 13:08:56;;;;;;;2.00;0.57;;;;;;;;;;5075730;28;20040;-77
2021/10/06 13:11:22;;;;;;;3.25;0.73;;;;;;;;;;5094063;28;20043;-77
2021/10/06 13:13:48;;;;;;;0.47;0.40;;;;;;;;;;5094329;28;20450;-77
2021/10/06 13:16:15;;;;;;;2.45;0.80;;;;;;;;;;5092876;28;20462;-77
2021/10/06 13:18:41;;;;;;;1.55;0.65;;;;;;;;;;5092979;28;20077;-77
2021/10/06 13:21:08;;;;;;;7.50;0.80;;;;;;;;;;5094208;28;20075;-77
2021/10/06 13:23:35;;;;;;;2.28;0.80;;;;;;;;;;5094211;28;20039;-77
2021/10/06 13:26:02;;;;;;;1.08;0.70;;;;;;;;;;5092343;28;20035;-77
2021/10/06 13:28:27;;;;;;;4.72;0.70;;;;;;;;;;5093789;28;20050;-77
2021/10/06 13:30:53;;;;;;;1.75;0.65;;;;;;;;;;5093913;28;20040;-77
2021/10/06 13:33:19;;;;;;;3.05;0.50;;;;;;;;;;5093754;28;20067;-77
2021/10/06 13:35:44;;;;;;;1.52;0.68;;;;;;;;;;5094061;28;20047;-77
2021/10/06 13:38:09;;;;;;;1.15;0.57;;;;;;;;;;5092920;28;20056;-77
2021/10/06 13:40:36;;;;;;;1.13;0.55;;;;;;;;;;5093373;28;20032;-77
2021/10/06 13:43:02;;;;;;;2.08;0.60;;;;;;;;;;5093927;28;20420;-77
2021/10/06 13:45:27;;;;;;;1.25;0.60;;;;;;;;;;5092461;28;20151;-77
2021/10/06 13:47:53;;;;;;;4.75;0.73;;;;;;;;;;5093715;28;20096;-77
2021/10/06 13:50:19;;;;;;;1.80;0.75;;;;;;;;;;5093548;28;20044;-77
2021/10/06 13:52:45;;;;;;;2.08;0.90;;;;;;;;;;5092625;28;20036;-78
2021/10/06 13:55:10;;;;;;;0.90;0.75;;;;;;;;;;5092913;28;20362;-77
2021/10/06 13:57:36;;;;;;;1.13;0.45;;;;;;;;;;5093666;28;20071;-77
2021/10/06 14:00:03;;;;;;;1.05;0.60;;;;;;;;;;5092611;28;20030;-77
2021/10/06 14:02:29;;;;;;;1.30;0.70;;;;;;;;;;5093720;28;20584;-77
2021/10/06 14:04:55;;;;;;;2.97;0.60;;;;;;;;;;5093620;28;20115;-77
2021/10/06 14:07:20;;;;;;;2.38;0.65;;;;;;;;;;5093569;28;20473;-77
2021/10/06 14:09:46;;;;;;;2.42;0.73;;;;;;;;;;5103702;28;20043;-77
2021/10/06 14:12:11;;;;;;;1.40;0.82;;;;;;;;;;5113754;28;20051;-77
2021/10/06 14:14:37;;;;;;;2.00;0.88;;;;;;;;;;5113730;28;20039;-78
2021/10/06 14:17:03;;;;;;;1.25;1.00;;;;;;;;;;5112461;28;20088;-78
2021/10/06 14:19:29;;;;;;;3.03;0.93;;;;;;;;;;5113726;28;20420;-77
2021/10/06 14:21:54;;;;;;;2.72;0.80;;;;;;;;;;5114362;28;20032;-77
2021/10/06 14:24:20;;;;;;;3.58;0.90;;;;;;;;;;5113695;28;20032;-77
2021/10/06 14:26:45;;;;;;;2.03;0.50;;;;;;;;;;5113651;28;20035;-77
2021/10/06 14:29:10;;;;;;;2.88;1.17;;;;;;;;;;5113783;28;20039;-77
2021/10/06 14:31:36;;;;;;;1.83;1.30;;;;;;;;;;5113465;28;20091;-77
2021/10/06 14:34:01;;;;;;;4.63;1.23;;;;;;;;;;5113825;28;20164;-77
2021/10/06 14:36:27;;;;;;;1.35;0.80;;;;;;;;;;5113835;28;20377;-77
2021/10/06 14:38:53;;;;;;;2.55;0.70;;;;;;;;;;5106572;28;20051;-78
2021/10/06 14:41:18;;;;;;;1.80;0.50;;;;;;;;;;5092987;28;20036;-77
2021/10/06 14:43:45;;;;;;;2.92;0.80;;;;;;;;;;5093188;28;20042;-78